Terminal Aerodrome Forecast
Issued by NWS Albuquerque, NM

Home | Current Version | Previous Version | Text Only | Print | Product List | Glossary On
Versions: 1 2 3 4 5 6 7 8 9 10 11 12 13 14 15 16 17
256
FTUS45 KABQ 261737
TAFABQ
TAF
KABQ 261737Z 2618/2718 23010G19KT P6SM FEW200
     FM261900 23016G26KT P6SM SKC
     FM262230 24020G32KT P6SM SKC
     FM270200 24012KT P6SM SKC
     FM271000 16006KT P6SM SKC=

USA.gov is the U.S. government's official web portal to all federal, state and local government web resources and services.